createdAt,value
2022-07-25T00:00:42.360Z,97370.13
2022-07-25T00:03:12.136Z,97366.63
2022-07-25T00:05:46.665Z,97366.69
2022-07-25T00:08:16.339Z,97369.09
2022-07-25T00:10:46.041Z,97355.13
2022-07-25T00:13:15.743Z,97356.97
2022-07-25T00:15:45.456Z,97357.44
2022-07-25T00:18:15.147Z,97356.63
2022-07-25T00:20:44.904Z,97355.41
2022-07-25T00:23:14.590Z,97350.53
2022-07-25T00:25:44.331Z,97343.50
2022-07-25T00:28:14.023Z,97332.41
2022-07-25T00:30:44.157Z,97344.56
2022-07-25T00:33:13.991Z,97332.31
2022-07-25T00:35:43.677Z,97335.41
2022-07-25T00:38:13.378Z,97333.00
2022-07-25T00:40:43.090Z,97331.78
2022-07-25T00:43:12.869Z,97315.44
2022-07-25T00:45:42.562Z,97327.00
2022-07-25T00:48:12.218Z,97321.84
2022-07-25T00:50:41.976Z,97324.16
2022-07-25T00:53:11.670Z,97325.00
2022-07-25T00:55:41.736Z,97313.94
2022-07-25T00:58:11.381Z,97320.63
2022-07-25T01:00:41.539Z,97317.50
2022-07-25T01:03:11.439Z,97324.22
2022-07-25T01:05:42.202Z,97305.97
2022-07-25T01:08:12.779Z,97310.63
2022-07-25T01:10:42.606Z,97310.22
2022-07-25T01:13:12.333Z,97311.22
2022-07-25T01:15:42.055Z,97307.31
2022-07-25T01:18:11.964Z,97305.75
2022-07-25T01:20:41.687Z,97293.81
2022-07-25T01:23:11.359Z,97295.78
2022-07-25T01:25:41.207Z,97289.88
2022-07-25T01:28:10.903Z,97293.81
2022-07-25T01:30:40.670Z,97290.50
2022-07-25T01:33:10.512Z,97290.50
2022-07-25T01:35:43.406Z,97283.81
2022-07-25T01:38:13.695Z,97288.91
2022-07-25T01:40:44.192Z,97278.22
2022-07-25T01:43:14.882Z,97280.91
2022-07-25T01:45:44.613Z,97271.44
2022-07-25T01:48:14.365Z,97272.19
2022-07-25T01:50:44.052Z,97268.47
2022-07-25T01:53:14.427Z,97284.72
2022-07-25T01:55:44.180Z,97270.88
2022-07-25T01:58:13.932Z,97267.69
2022-07-25T02:00:44.192Z,97270.03
2022-07-25T02:03:26.343Z,97277.56
2022-07-25T02:05:56.152Z,97276.00
2022-07-25T02:08:26.102Z,97281.53
2022-07-25T02:10:56.009Z,97265.28
2022-07-25T02:13:26.139Z,97270.38
2022-07-25T02:15:55.952Z,97273.09
2022-07-25T02:18:25.658Z,97272.69
2022-07-25T02:20:55.467Z,97260.00
2022-07-25T02:23:25.139Z,97258.41
2022-07-25T02:25:54.871Z,97257.19
2022-07-25T02:28:24.548Z,97257.53
2022-07-25T02:30:54.292Z,97259.06
2022-07-25T02:33:24.044Z,97244.81
2022-07-25T02:35:53.919Z,97251.34
2022-07-25T02:38:23.607Z,97255.72
2022-07-25T02:40:55.032Z,97243.84
2022-07-25T02:43:25.857Z,97252.53
2022-07-25T02:45:55.630Z,97243.84
2022-07-25T02:48:25.471Z,97248.56
2022-07-25T02:50:55.152Z,97243.41
2022-07-25T02:53:54.475Z,97254.84
2022-07-25T02:56:14.582Z,97254.06
2022-07-25T02:58:44.634Z,97242.56
2022-07-25T03:01:14.406Z,97248.81
2022-07-25T03:03:44.450Z,97246.31
2022-07-25T03:06:14.204Z,97243.91
2022-07-25T03:08:44.010Z,97255.31
2022-07-25T03:11:14.820Z,97245.91
2022-07-25T03:13:44.518Z,97244.72
2022-07-25T03:16:14.286Z,97230.06
2022-07-25T03:18:44.153Z,97241.13
2022-07-25T03:21:14.062Z,97238.75
2022-07-25T03:23:43.695Z,97239.56
2022-07-25T03:26:13.396Z,97239.47
2022-07-25T03:28:43.109Z,97232.06
2022-07-25T03:31:12.711Z,97236.00
2022-07-25T03:33:42.453Z,97231.63
2022-07-25T03:36:12.404Z,97245.47
2022-07-25T03:38:42.191Z,97247.44
2022-07-25T03:41:11.830Z,97251.66
2022-07-25T03:43:41.627Z,97247.31
2022-07-25T03:46:11.418Z,97247.72
2022-07-25T03:48:41.369Z,97243.75
2022-07-25T03:51:11.382Z,97235.84
2022-07-25T03:53:53.247Z,97241.84
2022-07-25T03:56:23.227Z,97240.66
2022-07-25T03:58:52.902Z,97244.72
2022-07-25T04:01:22.942Z,97234.44
2022-07-25T04:03:54.688Z,97243.00
2022-07-25T04:06:24.348Z,97236.16
2022-07-25T04:08:55.044Z,97230.31
2022-07-25T04:11:25.273Z,97230.31
2022-07-25T04:13:55.077Z,97230.75
2022-07-25T04:16:25.137Z,97236.28
2022-07-25T04:18:58.518Z,97227.19
2022-07-25T04:21:31.078Z,97224.84
2022-07-25T04:24:00.846Z,97220.09
2022-07-25T04:26:30.691Z,97217.31
2022-07-25T04:29:03.559Z,97213.41
2022-07-25T04:31:33.736Z,97214.63
2022-07-25T04:34:03.696Z,97215.06
2022-07-25T04:36:33.697Z,97218.34
2022-07-25T04:39:03.436Z,97215.66
2022-07-25T04:41:33.697Z,97213.69
2022-07-25T04:44:03.995Z,97217.25
2022-07-25T04:46:36.613Z,97205.75
2022-07-25T04:49:06.559Z,97207.38
2022-07-25T04:51:36.266Z,97208.56
2022-07-25T04:54:06.508Z,97208.22
2022-07-25T04:56:36.591Z,97205.06
2022-07-25T04:59:07.178Z,97208.25
2022-07-25T05:01:38.616Z,97205.13
2022-07-25T05:04:08.797Z,97198.84
2022-07-25T05:06:38.683Z,97188.16
2022-07-25T05:09:08.299Z,97189.41
2022-07-25T05:11:38.087Z,97194.22
2022-07-25T05:14:08.617Z,97189.56
2022-07-25T05:16:38.493Z,97184.06
2022-07-25T05:19:09.810Z,97185.72
2022-07-25T05:21:39.588Z,97181.06
2022-07-25T05:24:10.090Z,97174.41
2022-07-25T05:26:39.930Z,97178.03
2022-07-25T05:29:10.415Z,97176.53
2022-07-25T05:31:40.276Z,97171.84
2022-07-25T05:34:10.312Z,97166.31
2022-07-25T05:36:44.189Z,97168.41
2022-07-25T05:39:16.918Z,97157.38
2022-07-25T05:41:46.948Z,97157.84
2022-07-25T05:44:16.757Z,97153.94
2022-07-25T05:46:46.588Z,97148.06
2022-07-25T05:49:16.429Z,97148.53
2022-07-25T05:51:46.208Z,97143.44
2022-07-25T05:54:15.927Z,97137.50
2022-07-25T05:56:45.796Z,97141.16
2022-07-25T05:59:15.643Z,97138.44
2022-07-25T06:01:45.476Z,97138.09
2022-07-25T06:04:15.516Z,97135.38
2022-07-25T06:06:51.156Z,97144.97
2022-07-25T06:09:22.660Z,97129.19
2022-07-25T06:12:00.116Z,97132.84
2022-07-25T06:14:31.514Z,97130.09
2022-07-25T06:17:01.299Z,97132.16
2022-07-25T06:19:31.271Z,97135.75
2022-07-25T06:22:01.150Z,97139.00
2022-07-25T06:24:31.231Z,97135.09
2022-07-25T06:27:01.106Z,97136.34
2022-07-25T06:29:30.849Z,97124.50
2022-07-25T06:32:00.622Z,97122.16
2022-07-25T06:34:30.323Z,97126.56
2022-07-25T06:37:00.991Z,97129.44
2022-07-25T06:39:30.768Z,97127.47
2022-07-25T06:42:00.615Z,97119.97
2022-07-25T06:44:38.208Z,97116.44
2022-07-25T06:47:12.798Z,97119.22
2022-07-25T06:49:43.975Z,97115.31
2022-07-25T06:52:13.640Z,97112.53
2022-07-25T06:54:43.455Z,97106.63
2022-07-25T06:57:13.143Z,97106.63
2022-07-25T06:59:42.907Z,97102.28
2022-07-25T07:02:12.815Z,97095.56
2022-07-25T07:04:42.670Z,97086.44
2022-07-25T07:07:12.533Z,97086.03
2022-07-25T07:09:43.009Z,97085.63
2022-07-25T07:12:13.422Z,97085.25
2022-07-25T07:14:44.514Z,97073.69
2022-07-25T07:17:14.354Z,97085.59
2022-07-25T07:19:45.886Z,97076.84
2022-07-25T07:22:15.567Z,97068.47
2022-07-25T07:24:48.119Z,97069.69
2022-07-25T07:27:19.058Z,97075.22
2022-07-25T07:29:49.316Z,97072.00
2022-07-25T07:32:19.793Z,97074.34
2022-07-25T07:34:49.598Z,97078.31
2022-07-25T07:37:19.283Z,97079.47
2022-07-25T07:39:49.271Z,97059.88
2022-07-25T07:42:18.923Z,97060.63
2022-07-25T07:44:49.305Z,97056.19
2022-07-25T07:47:21.777Z,97056.53
2022-07-25T07:49:51.499Z,97047.69
2022-07-25T07:52:21.118Z,97045.63
2022-07-25T07:55:03.173Z,97042.75
2022-07-25T07:57:34.501Z,97044.28
2022-07-25T08:00:04.272Z,97049.00
2022-07-25T08:02:54.186Z,97038.53
2022-07-25T08:05:26.594Z,97042.84
2022-07-25T08:07:57.435Z,97039.16
2022-07-25T08:10:29.763Z,97046.59
2022-07-25T08:13:00.175Z,97034.09
2022-07-25T08:15:30.247Z,97029.16
2022-07-25T08:18:00.544Z,97037.44
2022-07-25T08:20:38.706Z,97039.72
2022-07-25T08:23:11.133Z,97035.16
2022-07-25T08:25:42.013Z,97026.16
2022-07-25T08:28:12.337Z,97023.63
2022-07-25T08:30:42.979Z,97028.72
2022-07-25T08:33:16.389Z,97033.75
2022-07-25T08:35:54.896Z,97020.41
2022-07-25T08:38:26.125Z,97022.31
2022-07-25T08:40:58.290Z,97014.97
2022-07-25T08:43:29.424Z,97021.59
2022-07-25T08:45:59.786Z,97014.66
2022-07-25T08:48:30.415Z,97019.31
2022-07-25T08:51:01.009Z,97014.34
2022-07-25T08:53:33.705Z,97007.41
2022-07-25T08:56:10.728Z,97001.97
2022-07-25T08:58:43.953Z,97003.44
2022-07-25T09:01:15.515Z,97002.50
2022-07-25T09:03:46.514Z,97000.66
2022-07-25T09:06:24.503Z,96998.00
2022-07-25T09:08:56.461Z,96996.63
2022-07-25T09:11:44.350Z,97000.75
2022-07-25T09:14:15.705Z,96989.38
2022-07-25T09:16:48.159Z,96998.00
2022-07-25T09:19:28.595Z,96997.78
2022-07-25T09:22:10.060Z,96996.66
2022-07-25T09:24:48.099Z,96990.44
2022-07-25T09:27:18.330Z,96986.66
2022-07-25T09:29:48.253Z,96978.44
2022-07-25T09:32:23.422Z,96983.22
2022-07-25T09:34:53.774Z,96976.53
2022-07-25T09:37:29.915Z,96986.63
2022-07-25T09:39:59.612Z,96978.44
2022-07-25T09:42:32.276Z,96973.00
2022-07-25T09:45:11.530Z,96968.78
2022-07-25T09:47:53.410Z,96978.44
2022-07-25T09:50:25.242Z,96971.66
2022-07-25T09:52:57.070Z,96978.06
2022-07-25T09:55:27.619Z,96973.13
2022-07-25T09:57:57.572Z,96969.25
2022-07-25T10:00:29.718Z,96964.44
2022-07-25T10:03:45.719Z,96953.28
2022-07-25T10:06:23.663Z,96961.66
2022-07-25T10:08:54.354Z,96966.09
2022-07-25T10:11:30.060Z,96957.03
2022-07-25T10:14:00.034Z,96957.25
2022-07-25T10:16:30.670Z,96965.81
2022-07-25T10:19:01.771Z,96949.72
2022-07-25T10:21:31.781Z,96955.13
2022-07-25T10:24:12.954Z,96948.38
2022-07-25T10:26:55.049Z,96949.31
2022-07-25T10:29:24.808Z,96943.97
2022-07-25T10:31:54.782Z,96939.47
2022-07-25T10:34:33.567Z,96942.13
2022-07-25T10:37:18.481Z,96939.22
2022-07-25T10:39:48.885Z,96929.56
2022-07-25T10:42:20.959Z,96931.16
2022-07-25T10:44:52.642Z,96929.13
2022-07-25T10:47:26.593Z,96928.09
2022-07-25T10:50:34.769Z,96921.53
2022-07-25T10:53:07.877Z,96914.50
2022-07-25T10:55:39.522Z,96919.91
2022-07-25T10:58:18.173Z,96915.44
2022-07-25T11:00:48.229Z,96915.72
2022-07-25T11:03:18.675Z,96911.75
2022-07-25T11:05:51.803Z,96913.19
2022-07-25T11:08:22.631Z,96905.94
2022-07-25T11:10:55.188Z,96901.13
2022-07-25T11:13:24.904Z,96905.84
2022-07-25T11:15:54.684Z,96895.59
2022-07-25T11:18:35.020Z,96894.34
2022-07-25T11:21:06.834Z,96898.91
2022-07-25T11:23:38.852Z,96888.03
2022-07-25T11:26:13.876Z,96890.09
2022-07-25T11:28:53.626Z,96889.28
2022-07-25T11:31:26.262Z,96884.47
2022-07-25T11:33:56.124Z,96883.06
2022-07-25T11:36:25.902Z,96873.19
2022-07-25T11:38:55.654Z,96873.41
2022-07-25T11:41:33.068Z,96870.75
2022-07-25T11:44:02.837Z,96869.19
2022-07-25T11:46:32.602Z,96865.75
2022-07-25T11:49:09.157Z,96853.81
2022-07-25T11:51:41.994Z,96858.97
2022-07-25T11:54:13.779Z,96861.97
2022-07-25T11:56:45.762Z,96850.97
2022-07-25T11:59:16.938Z,96851.28
2022-07-25T12:01:47.694Z,96847.81
2022-07-25T12:04:20.607Z,96846.69
2022-07-25T12:06:52.007Z,96843.31
2022-07-25T12:09:24.803Z,96839.66
2022-07-25T12:12:06.214Z,96822.75
2022-07-25T12:14:45.622Z,96826.47
2022-07-25T12:17:15.445Z,96831.63
2022-07-25T12:19:48.812Z,96828.25
2022-07-25T12:22:18.545Z,96825.19
2022-07-25T12:24:48.398Z,96833.47
2022-07-25T12:27:18.027Z,96822.63
2022-07-25T12:29:47.731Z,96823.19
2022-07-25T12:32:17.616Z,96818.41
2022-07-25T12:34:47.285Z,96820.66
2022-07-25T12:37:17.012Z,96816.97
2022-07-25T12:39:46.709Z,96811.38
2022-07-25T12:42:16.476Z,96813.63
2022-07-25T12:44:46.732Z,96811.97
2022-07-25T12:47:16.412Z,96811.28
2022-07-25T12:49:46.279Z,96805.44
2022-07-25T12:52:15.973Z,96806.69
2022-07-25T12:54:46.371Z,96799.38
2022-07-25T12:57:20.921Z,96796.22
2022-07-25T12:59:50.623Z,96799.59
2022-07-25T13:02:20.386Z,96784.97
2022-07-25T13:04:50.177Z,96777.91
2022-07-25T13:07:19.937Z,96780.16
2022-07-25T13:09:49.895Z,96766.00
2022-07-25T13:12:19.743Z,96778.16
2022-07-25T13:14:49.764Z,96769.06
2022-07-25T13:17:26.501Z,96777.06
2022-07-25T13:19:57.786Z,96771.94
2022-07-25T13:22:28.478Z,96768.28
2022-07-25T13:24:58.387Z,96755.97
2022-07-25T13:27:28.123Z,96761.50
2022-07-25T13:29:58.161Z,96765.69
2022-07-25T13:32:29.611Z,96767.84
2022-07-25T13:34:59.984Z,96756.06
2022-07-25T13:37:30.135Z,96757.44
2022-07-25T13:39:59.813Z,96760.34
2022-07-25T13:42:29.800Z,96750.66
2022-07-25T13:44:59.742Z,96750.97
2022-07-25T13:47:30.658Z,96746.03
2022-07-25T13:50:00.714Z,96741.22
2022-07-25T13:52:30.427Z,96731.09
2022-07-25T13:55:00.253Z,96743.34
2022-07-25T13:57:30.049Z,96721.59
2022-07-25T13:59:59.736Z,96723.16
2022-07-25T14:02:29.703Z,96724.19
2022-07-25T14:05:03.753Z,96715.53
2022-07-25T14:07:34.060Z,96712.06
2022-07-25T14:10:04.185Z,96706.94
2022-07-25T14:12:34.326Z,96702.06
2022-07-25T14:15:04.410Z,96712.16
2022-07-25T14:17:34.142Z,96707.69
2022-07-25T14:20:03.850Z,96698.03
2022-07-25T14:22:33.564Z,96692.78
2022-07-25T14:25:03.234Z,96697.44
2022-07-25T14:27:32.912Z,96691.84
2022-07-25T14:30:02.651Z,96698.69
2022-07-25T14:32:32.352Z,96698.41
2022-07-25T14:35:02.558Z,96702.69
2022-07-25T14:37:32.518Z,96697.34
2022-07-25T14:40:03.275Z,96689.63
2022-07-25T14:42:33.140Z,96686.25
2022-07-25T14:45:02.936Z,96688.16
2022-07-25T14:47:34.115Z,96684.59
2022-07-25T14:50:04.072Z,96678.00
2022-07-25T14:52:34.298Z,96678.66
2022-07-25T14:55:05.125Z,96678.88
2022-07-25T14:57:35.129Z,96674.25
2022-07-25T15:00:08.156Z,96676.63
2022-07-25T15:02:40.694Z,96668.44
2022-07-25T15:05:10.922Z,96675.56
2022-07-25T15:07:40.995Z,96667.44
2022-07-25T15:10:11.203Z,96657.44
2022-07-25T15:12:41.212Z,96661.22
2022-07-25T15:15:11.542Z,96657.22
2022-07-25T15:17:41.823Z,96661.03
2022-07-25T15:20:12.050Z,96654.47
2022-07-25T15:22:41.726Z,96651.91
2022-07-25T15:28:02.140Z,96645.16
2022-07-25T15:30:31.926Z,96640.84
2022-07-25T15:33:02.199Z,96628.69
2022-07-25T15:35:31.925Z,96639.53
2022-07-25T15:38:01.674Z,96634.94
2022-07-25T15:40:31.465Z,96627.47
2022-07-25T15:43:01.492Z,96626.84
2022-07-25T15:45:33.152Z,96627.47
2022-07-25T15:48:03.830Z,96626.16
2022-07-25T15:50:33.601Z,96622.44
2022-07-25T15:53:03.380Z,96624.03
2022-07-25T15:55:33.963Z,96626.84
2022-07-25T15:58:04.204Z,96616.69
2022-07-25T16:00:34.027Z,96613.03
2022-07-25T16:03:04.362Z,96622.88
2022-07-25T16:05:34.146Z,96605.06
2022-07-25T16:08:04.714Z,96607.97
2022-07-25T16:10:36.413Z,96602.47
2022-07-25T16:13:06.387Z,96606.06
2022-07-25T16:15:36.197Z,96602.97
2022-07-25T16:18:06.223Z,96609.97
2022-07-25T16:20:36.396Z,96603.22
2022-07-25T16:23:06.539Z,96609.31
2022-07-25T16:25:36.387Z,96607.09
2022-07-25T16:28:06.416Z,96593.75
2022-07-25T16:30:36.550Z,96595.06
2022-07-25T16:33:06.304Z,96602.00
2022-07-25T16:35:36.006Z,96606.31
2022-07-25T16:38:05.716Z,96599.91
2022-07-25T16:40:35.802Z,96603.66
2022-07-25T16:43:05.558Z,96603.44
2022-07-25T16:45:35.279Z,96598.88
2022-07-25T16:48:05.130Z,96589.91
2022-07-25T16:50:34.723Z,96597.00
2022-07-25T16:53:04.358Z,96594.53
2022-07-25T16:55:34.345Z,96584.16
2022-07-25T16:58:04.047Z,96587.06
2022-07-25T17:00:34.254Z,96584.53
2022-07-25T17:03:04.148Z,96574.25
2022-07-25T17:05:33.827Z,96582.56
2022-07-25T17:08:03.563Z,96579.66
2022-07-25T17:10:33.223Z,96577.16
2022-07-25T17:13:03.189Z,96588.94
2022-07-25T17:15:32.925Z,96578.16
2022-07-25T17:18:02.726Z,96565.34
2022-07-25T17:20:32.409Z,96564.81
2022-07-25T17:23:02.096Z,96563.78
2022-07-25T17:25:31.831Z,96565.97
2022-07-25T17:28:01.575Z,96572.50
2022-07-25T17:30:31.673Z,96571.47
2022-07-25T17:33:01.993Z,96578.41
2022-07-25T17:35:31.682Z,96571.66
2022-07-25T17:38:01.940Z,96564.91
2022-07-25T17:40:31.843Z,96568.97
2022-07-25T17:43:01.575Z,96567.34
2022-07-25T17:45:31.318Z,96571.88
2022-07-25T17:48:01.294Z,96574.59
2022-07-25T17:50:31.021Z,96577.47
2022-07-25T17:53:01.021Z,96569.13
2022-07-25T17:55:35.423Z,96571.47
2022-07-25T17:58:08.413Z,96569.22
2022-07-25T18:00:38.544Z,96581.06
2022-07-25T18:03:09.352Z,96574.75
2022-07-25T18:05:39.918Z,96574.69
2022-07-25T18:08:09.783Z,96576.47
2022-07-25T18:10:39.510Z,96566.44
2022-07-25T18:13:09.275Z,96562.69
2022-07-25T18:15:39.423Z,96574.03
2022-07-25T18:18:10.559Z,96570.09
2022-07-25T18:20:43.999Z,96570.91
2022-07-25T18:23:13.905Z,96568.34
2022-07-25T18:25:43.958Z,96570.97
2022-07-25T18:28:13.842Z,96569.69
2022-07-25T18:30:43.528Z,96561.81
2022-07-25T18:33:13.848Z,96575.25
2022-07-25T18:35:43.539Z,96573.91
2022-07-25T18:38:13.286Z,96569.63
2022-07-25T18:40:43.099Z,96570.38
2022-07-25T18:43:12.746Z,96570.44
2022-07-25T18:45:42.804Z,96579.00
2022-07-25T18:48:12.441Z,96570.16
2022-07-25T18:50:42.214Z,96569.03
2022-07-25T18:53:12.417Z,96575.69
2022-07-25T18:55:42.203Z,96580.47
2022-07-25T18:58:15.946Z,96583.69
